Time;durP1;ratioP1;P1;durP2;ratioP2;P2;SDS_P1;SDS_P2;PMS_P1;PMS_P2;Temp;Humidity;BMP_temperature;BMP_pressure;BME280_temperature;BME280_humidity;BME280_pressure;Samples;Min_cycle;Max_cycle;Signal;HPM_P1;HPM_P2
2023/02/26 00:01:15;;;;;;;9.47;8.70;;;-0.30;85.00;;;;;;4993656;28;20207;-88
2023/02/26 00:03:41;;;;;;;9.53;8.57;;;-0.30;84.90;;;;;;4993680;28;20182;-88
2023/02/26 00:06:07;;;;;;;14.03;8.93;;;-0.30;85.00;;;;;;4993343;28;20215;-89
2023/02/26 00:08:33;;;;;;;8.80;8.10;;;-0.40;85.00;;;;;;4994722;28;20176;-88
2023/02/26 00:11:00;;;;;;;10.20;8.10;;;-0.30;85.20;;;;;;4994634;28;20171;-88
2023/02/26 00:13:29;;;;;;;11.50;8.20;;;-0.40;85.10;;;;;;4994648;28;20212;-88
2023/02/26 00:15:59;;;;;;;9.23;8.17;;;-0.40;85.20;;;;;;4994280;28;20603;-88
2023/02/26 00:18:26;;;;;;;10.17;8.00;;;-0.50;85.30;;;;;;4993283;28;20661;-88
2023/02/26 00:20:51;;;;;;;12.03;9.23;;;-0.50;85.30;;;;;;4993166;28;20211;-88
2023/02/26 00:23:17;;;;;;;9.70;8.70;;;-0.50;85.70;;;;;;4993571;28;20201;-88
2023/02/26 00:25:44;;;;;;;11.80;8.53;;;-0.50;85.60;;;;;;4992944;28;20221;-88
2023/02/26 00:28:11;;;;;;;11.60;8.77;;;-0.50;85.80;;;;;;4993587;28;20287;-88
2023/02/26 00:30:37;;;;;;;9.10;8.30;;;-0.50;85.80;;;;;;4992974;28;20704;-88
2023/02/26 00:33:04;;;;;;;16.97;7.90;;;-0.30;86.00;;;;;;4993443;28;20184;-87
2023/02/26 00:35:30;;;;;;;9.03;8.27;;;-0.30;85.90;;;;;;4992987;28;20186;-87
2023/02/26 00:38:05;;;;;;;10.97;7.50;;;-0.30;85.90;;;;;;4992908;28;20186;-88
2023/02/26 00:40:43;;;;;;;8.93;7.53;;;-0.40;86.00;;;;;;4994077;28;20264;-87
2023/02/26 00:43:17;;;;;;;10.03;7.93;;;-0.40;86.20;;;;;;4992995;28;20181;-87
2023/02/26 00:46:05;;;;;;;10.10;7.73;;;-0.40;86.30;;;;;;4993211;28;20227;-87
2023/02/26 00:48:37;;;;;;;10.63;7.83;;;-0.40;86.30;;;;;;4992982;28;20185;-88
2023/02/26 00:51:38;;;;;;;8.50;7.63;;;-0.30;86.20;;;;;;4992869;28;20559;-87
2023/02/26 00:54:08;;;;;;;7.93;7.30;;;-0.40;86.10;;;;;;4953348;29;20183;-88
2023/02/26 00:56:34;;;;;;;9.50;7.60;;;-0.40;86.10;;;;;;4982301;28;20244;-88
2023/02/26 00:58:59;;;;;;;10.07;8.27;;;-0.40;86.10;;;;;;4993233;28;20211;-87
2023/02/26 01:01:25;;;;;;;12.30;8.00;;;-0.40;86.00;;;;;;4992546;28;20194;-88
2023/02/26 01:03:51;;;;;;;9.90;8.50;;;-0.40;86.00;;;;;;4992660;28;20182;-88
2023/02/26 01:06:20;;;;;;;8.83;7.80;;;-0.40;85.80;;;;;;4992764;28;20266;-88
2023/02/26 01:09:01;;;;;;;10.37;7.93;;;-0.50;85.80;;;;;;4993025;28;20174;-87
2023/02/26 01:11:27;;;;;;;8.50;7.90;;;-0.60;85.80;;;;;;4994167;28;20581;-88
2023/02/26 01:13:53;;;;;;;8.67;7.80;;;-0.60;86.00;;;;;;4992519;28;20183;-87
2023/02/26 01:16:23;;;;;;;10.40;7.57;;;-0.60;86.00;;;;;;4992492;28;20312;-87
2023/02/26 01:19:16;;;;;;;8.50;7.73;;;-0.50;86.10;;;;;;4993885;28;20185;-87
2023/02/26 01:21:50;;;;;;;9.70;7.93;;;-0.50;86.00;;;;;;4992550;28;20211;-87
2023/02/26 01:24:20;;;;;;;11.30;8.27;;;-0.50;86.00;;;;;;4992463;28;20227;-87
2023/02/26 01:26:48;;;;;;;8.77;7.93;;;-0.50;86.00;;;;;;4992290;28;20218;-87
2023/02/26 01:29:14;;;;;;;8.47;7.67;;;-0.50;86.00;;;;;;4993675;28;20174;-87
2023/02/26 01:31:56;;;;;;;9.47;7.87;;;-0.50;85.90;;;;;;4992305;28;20180;-87
2023/02/26 01:34:55;;;;;;;9.87;8.47;;;-0.50;86.00;;;;;;4992946;28;20176;-88
2023/02/26 01:37:34;;;;;;;10.73;8.20;;;-0.30;86.10;;;;;;4992479;28;20208;-88
2023/02/26 01:40:33;;;;;;;9.27;8.07;;;-0.30;86.00;;;;;;4992459;28;20172;-88
2023/02/26 01:43:09;;;;;;;8.80;7.73;;;-0.40;85.70;;;;;;4992501;28;20172;-88
2023/02/26 01:45:42;;;;;;;11.00;8.33;;;-0.30;85.90;;;;;;4992667;28;20638;-88
2023/02/26 01:48:25;;;;;;;9.37;8.40;;;-0.30;85.80;;;;;;4992430;28;20174;-88
2023/02/26 01:50:50;;;;;;;8.27;7.50;;;-0.30;85.90;;;;;;4992512;28;20169;-88
2023/02/26 01:53:24;;;;;;;9.50;8.37;;;-0.20;86.00;;;;;;4992605;28;20493;-88
2023/02/26 01:55:57;;;;;;;11.53;8.27;;;-0.20;85.70;;;;;;4992384;28;20199;-88
2023/02/26 01:58:25;;;;;;;9.67;8.33;;;-0.30;85.70;;;;;;4992429;28;20227;-88
2023/02/26 02:00:51;;;;;;;9.07;8.27;;;-0.20;85.70;;;;;;4992342;28;20177;-88
2023/02/26 02:03:19;;;;;;;9.20;8.30;;;-0.20;85.60;;;;;;4992161;28;20552;-88
2023/02/26 02:05:50;;;;;;;8.70;7.83;;;-0.20;85.60;;;;;;4991921;28;20557;-87
2023/02/26 02:08:18;;;;;;;11.30;8.13;;;-0.20;85.50;;;;;;4993500;28;20189;-88
2023/02/26 02:10:45;;;;;;;8.63;7.83;;;-0.30;85.40;;;;;;4992906;28;20182;-88
2023/02/26 02:13:35;;;;;;;9.43;8.37;;;-0.30;85.40;;;;;;4997062;28;20173;-88
2023/02/26 02:16:19;;;;;;;8.70;7.80;;;-0.30;85.30;;;;;;4995441;28;20205;-87
2023/02/26 02:19:08;;;;;;;9.33;8.40;;;-0.30;85.20;;;;;;4996040;28;20177;-88
2023/02/26 02:21:48;;;;;;;10.30;7.97;;;-0.40;85.20;;;;;;4995377;28;20170;-87
2023/02/26 02:24:40;;;;;;;11.07;8.90;;;-0.40;85.10;;;;;;4995340;28;20251;-87
2023/02/26 02:27:16;;;;;;;9.17;8.40;;;-0.40;85.10;;;;;;4995569;28;20196;-88
2023/02/26 02:30:04;;;;;;;8.87;8.20;;;-0.40;84.90;;;;;;4995794;28;20223;-87
2023/02/26 02:32:43;;;;;;;10.20;9.20;;;-0.50;84.90;;;;;;4995328;28;20214;-87
2023/02/26 02:35:35;;;;;;;8.70;8.00;;;-0.50;84.80;;;;;;4995274;28;20179;-87
2023/02/26 02:38:08;;;;;;;9.90;7.97;;;-0.60;84.70;;;;;;4995737;28;20275;-88
2023/02/26 02:40:39;;;;;;;9.53;8.90;;;-0.50;84.90;;;;;;4995115;28;20220;-88
2023/02/26 02:43:18;;;;;;;9.53;8.70;;;-0.50;84.60;;;;;;4995117;28;20173;-88
2023/02/26 02:45:52;;;;;;;9.03;8.40;;;-0.60;84.60;;;;;;4995802;28;20234;-88
2023/02/26 02:48:25;;;;;;;8.83;8.13;;;-0.60;84.70;;;;;;4994995;28;20254;-88
2023/02/26 02:50:57;;;;;;;9.47;8.50;;;-0.60;84.60;;;;;;4996174;28;20158;-88
2023/02/26 02:53:35;;;;;;;11.70;9.20;;;-0.60;84.70;;;;;;4995046;28;20233;-88
2023/02/26 02:56:09;;;;;;;9.50;8.60;;;-0.70;84.70;;;;;;4996071;28;20200;-88
2023/02/26 02:58:41;;;;;;;9.00;8.10;;;-0.70;84.70;;;;;;4994957;28;20205;-88
2023/02/26 03:01:12;;;;;;;9.77;8.83;;;-0.70;84.70;;;;;;4994809;28;20168;-88
2023/02/26 03:04:00;;;;;;;10.27;8.53;;;-0.70;84.60;;;;;;4994786;28;20174;-88
2023/02/26 03:06:25;;;;;;;9.13;8.33;;;-0.80;84.70;;;;;;4994558;28;20696;-88
2023/02/26 03:08:52;;;;;;;9.77;8.63;;;-0.80;84.60;;;;;;4994686;28;20202;-88
2023/02/26 03:11:18;;;;;;;10.00;9.00;;;-0.80;84.50;;;;;;4994659;28;20279;-88
2023/02/26 03:13:44;;;;;;;10.00;9.10;;;-0.80;84.50;;;;;;4994545;28;20206;-88
2023/02/26 03:16:59;;;;;;;12.47;8.83;;;-0.70;84.60;;;;;;4994363;28;20763;-88
2023/02/26 03:19:44;;;;;;;9.77;8.87;;;-0.70;84.30;;;;;;4955085;29;20185;-88
2023/02/26 03:22:33;;;;;;;8.83;8.13;;;-0.70;84.30;;;;;;4994834;28;20166;-88
2023/02/26 03:25:23;;;;;;;11.93;8.67;;;-0.80;84.00;;;;;;4994474;28;20202;-88
2023/02/26 03:28:06;;;;;;;8.83;7.20;;;-0.80;84.10;;;;;;4995203;28;20162;-88
2023/02/26 03:30:46;;;;;;;9.43;8.30;;;-0.80;84.30;;;;;;4995462;28;20192;-88
2023/02/26 03:33:20;;;;;;;8.97;7.57;;;-0.80;84.00;;;;;;4994383;28;20626;-88
2023/02/26 03:36:13;;;;;;;10.00;8.20;;;-0.80;84.00;;;;;;4994850;28;20193;-88
2023/02/26 03:38:48;;;;;;;9.83;8.47;;;-0.80;83.80;;;;;;4994338;28;20170;-88
2023/02/26 03:41:21;;;;;;;14.23;8.70;;;-0.90;83.90;;;;;;4994114;28;20171;-88
2023/02/26 03:43:54;;;;;;;10.97;8.37;;;-0.90;83.80;;;;;;4993978;28;20168;-88
2023/02/26 03:46:29;;;;;;;9.63;8.73;;;-0.80;83.80;;;;;;4993890;28;20216;-88
2023/02/26 03:48:59;;;;;;;12.60;8.40;;;-0.90;83.70;;;;;;4994017;28;20229;-88
2023/02/26 03:51:26;;;;;;;9.17;8.27;;;-0.90;83.50;;;;;;4995103;28;20204;-88
2023/02/26 03:53:58;;;;;;;9.83;8.63;;;-0.90;83.60;;;;;;4993794;28;20181;-88
2023/02/26 03:56:26;;;;;;;10.17;8.80;;;-1.00;83.50;;;;;;4993829;28;20215;-88
2023/02/26 03:58:51;;;;;;;9.87;9.17;;;-0.90;83.80;;;;;;4993787;28;20186;-88
2023/02/26 04:01:30;;;;;;;9.73;8.57;;;-0.90;83.40;;;;;;4994797;28;20171;-88
2023/02/26 04:04:14;;;;;;;9.60;8.73;;;-1.00;83.30;;;;;;4993716;28;20175;-87
2023/02/26 04:06:41;;;;;;;9.63;8.90;;;-0.90;83.30;;;;;;4995047;28;20195;-88
2023/02/26 04:09:07;;;;;;;10.13;9.27;;;-1.00;83.30;;;;;;4994693;28;20167;-87
2023/02/26 04:11:34;;;;;;;10.20;9.30;;;-1.00;83.30;;;;;;4993532;28;20652;-88
2023/02/26 04:13:59;;;;;;;10.77;9.70;;;-0.90;83.30;;;;;;4993399;28;20177;-88
2023/02/26 04:16:25;;;;;;;11.57;9.73;;;-1.00;83.00;;;;;;4994638;28;20231;-88
2023/02/26 04:18:50;;;;;;;10.00;9.10;;;-1.10;82.90;;;;;;4994144;28;20650;-88
2023/02/26 04:21:19;;;;;;;9.93;9.17;;;-1.20;83.20;;;;;;4994918;28;20186;-87
2023/02/26 04:23:45;;;;;;;11.00;9.03;;;-1.30;83.10;;;;;;4993288;28;20270;-88
2023/02/26 04:26:12;;;;;;;10.57;9.57;;;-1.30;83.30;;;;;;4993304;28;20747;-88
2023/02/26 04:28:37;;;;;;;10.60;8.67;;;-1.40;83.30;;;;;;4993160;28;20188;-88
2023/02/26 04:31:06;;;;;;;9.97;9.10;;;-1.30;83.60;;;;;;4993316;28;20264;-86
2023/02/26 04:33:32;;;;;;;22.30;9.90;;;-1.30;83.40;;;;;;4994659;28;20256;-88
2023/02/26 04:35:59;;;;;;;10.37;9.57;;;-1.40;83.30;;;;;;4993155;28;20745;-88
2023/02/26 04:38:25;;;;;;;10.27;9.37;;;-1.30;83.40;;;;;;4993550;28;20190;-88
2023/02/26 04:40:51;;;;;;;11.53;9.60;;;-1.40;83.30;;;;;;4993044;28;20540;-88
2023/02/26 04:43:17;;;;;;;11.73;8.80;;;-1.40;83.30;;;;;;4993623;28;20190;-88
2023/02/26 04:45:45;;;;;;;18.63;8.87;;;-1.40;83.40;;;;;;4994088;28;20263;-88
2023/02/26 04:48:11;;;;;;;12.67;8.67;;;-1.50;83.20;;;;;;4992939;28;20588;-88
2023/02/26 04:50:37;;;;;;;9.23;8.33;;;-1.50;83.20;;;;;;4993034;28;20174;-87
2023/02/26 04:53:02;;;;;;;10.47;9.47;;;-1.40;83.30;;;;;;4992899;28;20589;-88
2023/02/26 04:55:28;;;;;;;10.33;9.53;;;-1.40;83.20;;;;;;4992810;28;20236;-88
2023/02/26 04:57:54;;;;;;;9.90;9.00;;;-1.40;83.10;;;;;;4994377;28;20178;-88
2023/02/26 05:00:20;;;;;;;11.37;9.23;;;-1.50;83.20;;;;;;4993060;28;20221;-88
2023/02/26 05:02:46;;;;;;;9.80;9.00;;;-1.50;83.00;;;;;;4993971;28;20209;-88
2023/02/26 05:05:11;;;;;;;11.00;9.83;;;-1.50;83.00;;;;;;4992657;28;20238;-88
2023/02/26 05:07:37;;;;;;;10.13;9.27;;;-1.60;83.10;;;;;;4993830;28;20631;-88
2023/02/26 05:10:04;;;;;;;9.70;9.07;;;-1.60;83.00;;;;;;4992831;28;20215;-88
2023/02/26 05:12:30;;;;;;;10.70;9.80;;;-1.60;83.10;;;;;;4992698;28;20179;-88
2023/02/26 05:14:55;;;;;;;9.60;8.97;;;-1.60;83.00;;;;;;4993822;28;20679;-88
2023/02/26 05:17:21;;;;;;;10.23;9.23;;;-1.60;83.00;;;;;;4992788;28;20217;-87
2023/02/26 05:19:46;;;;;;;10.60;9.70;;;-1.60;82.90;;;;;;4992631;28;20178;-88
2023/02/26 05:22:12;;;;;;;9.47;8.77;;;-1.60;82.90;;;;;;4994115;28;20649;-88
2023/02/26 05:24:38;;;;;;;10.73;9.70;;;-1.60;82.90;;;;;;4992566;28;20198;-88
2023/02/26 05:27:03;;;;;;;11.37;9.43;;;-1.60;83.00;;;;;;4992568;28;20198;-88
2023/02/26 05:29:29;;;;;;;12.57;9.50;;;-1.60;82.90;;;;;;4993641;28;20175;-88
2023/02/26 05:31:55;;;;;;;11.43;9.90;;;-1.70;82.80;;;;;;4993816;28;20170;-88
2023/02/26 05:34:21;;;;;;;12.20;9.53;;;-1.60;82.90;;;;;;4994108;28;20173;-88
2023/02/26 05:36:46;;;;;;;10.83;9.97;;;-1.60;82.70;;;;;;4992633;28;20198;-88
2023/02/26 05:39:12;;;;;;;11.00;9.90;;;-1.60;82.70;;;;;;4992504;28;20185;-88
2023/02/26 05:41:37;;;;;;;10.57;9.67;;;-1.70;82.50;;;;;;4993788;28;20183;-88
2023/02/26 05:44:03;;;;;;;10.40;9.50;;;-1.70;82.30;;;;;;4992783;28;20178;-88
2023/02/26 05:46:28;;;;;;;10.27;9.50;;;-1.70;82.30;;;;;;4994620;28;20217;-88
2023/02/26 05:48:54;;;;;;;10.40;9.60;;;-1.70;82.20;;;;;;4996798;28;20205;-88
2023/02/26 05:51:19;;;;;;;10.50;9.80;;;-1.60;82.10;;;;;;4997712;28;20273;-88
2023/02/26 05:53:45;;;;;;;10.77;9.90;;;-1.70;81.90;;;;;;4997388;28;20170;-88
2023/02/26 05:56:10;;;;;;;14.33;9.27;;;-1.70;82.00;;;;;;4997436;28;20213;-88
2023/02/26 05:58:36;;;;;;;10.43;9.67;;;-1.80;81.90;;;;;;4997684;28;20178;-88
2023/02/26 06:01:02;;;;;;;10.07;9.17;;;-1.70;82.10;;;;;;4996518;28;20184;-88
2023/02/26 06:03:28;;;;;;;10.97;9.80;;;-1.80;81.90;;;;;;4996223;28;20652;-88
2023/02/26 06:05:53;;;;;;;11.23;10.20;;;-1.80;82.00;;;;;;4997398;28;20213;-88
2023/02/26 06:08:19;;;;;;;10.60;9.90;;;-1.90;82.00;;;;;;4996090;28;20174;-87
2023/02/26 06:10:44;;;;;;;10.33;9.63;;;-1.80;82.00;;;;;;4997377;28;20171;-87
2023/02/26 06:13:10;;;;;;;11.63;10.60;;;-1.80;81.90;;;;;;4997124;28;20648;-88
2023/02/26 06:15:35;;;;;;;10.73;9.70;;;-1.70;81.90;;;;;;4997333;28;20232;-87
2023/02/26 06:18:01;;;;;;;13.90;11.07;;;-1.80;81.70;;;;;;4996921;28;20168;-88
2023/02/26 06:20:27;;;;;;;15.63;11.10;;;-1.80;81.70;;;;;;4996969;28;20254;-88
2023/02/26 06:22:53;;;;;;;11.93;11.03;;;-1.70;81.80;;;;;;4995910;28;20181;-88
2023/02/26 06:25:19;;;;;;;12.00;11.20;;;-1.60;81.70;;;;;;4995637;28;20681;-88
2023/02/26 06:27:44;;;;;;;11.80;10.97;;;-1.60;81.30;;;;;;4995763;28;20652;-88
2023/02/26 06:30:10;;;;;;;12.20;11.10;;;-1.70;81.30;;;;;;4996787;28;20181;-88
2023/02/26 06:32:36;;;;;;;16.87;11.93;;;-1.70;81.50;;;;;;4996696;28;20649;-89
2023/02/26 06:35:01;;;;;;;12.20;11.10;;;-1.70;81.50;;;;;;4996530;28;20174;-88
2023/02/26 06:37:27;;;;;;;12.03;10.60;;;-1.60;81.50;;;;;;4996034;28;20194;-88
2023/02/26 06:39:53;;;;;;;14.27;10.77;;;-1.60;81.40;;;;;;4996620;28;20644;-88
2023/02/26 06:42:18;;;;;;;12.97;11.27;;;-1.60;81.50;;;;;;4995227;28;20533;-86
2023/02/26 06:44:44;;;;;;;11.73;10.73;;;-1.60;81.70;;;;;;4995472;28;20595;-86
2023/02/26 06:47:09;;;;;;;11.23;10.43;;;-1.60;82.00;;;;;;4995279;28;20200;-89
2023/02/26 06:49:35;;;;;;;12.07;10.90;;;-1.50;82.20;;;;;;4994969;28;20176;-89
2023/02/26 06:52:00;;;;;;;13.83;12.33;;;-1.50;82.20;;;;;;4996533;28;20170;-87
2023/02/26 06:54:26;;;;;;;13.23;12.00;;;-1.40;82.10;;;;;;4996671;28;20174;-88
2023/02/26 06:56:51;;;;;;;12.80;11.47;;;-1.40;82.00;;;;;;4995502;28;20189;-88
2023/02/26 06:59:17;;;;;;;10.70;9.70;;;-1.30;82.00;;;;;;4995374;28;20187;-87
2023/02/26 07:01:43;;;;;;;11.97;10.87;;;-1.40;81.90;;;;;;4996514;28;20268;-88
2023/02/26 07:04:08;;;;;;;12.00;10.90;;;-1.40;82.20;;;;;;4994821;28;20245;-88
2023/02/26 07:06:34;;;;;;;11.60;10.80;;;-1.30;82.10;;;;;;4996009;28;20263;-89
2023/02/26 07:08:59;;;;;;;13.23;11.30;;;-1.30;82.00;;;;;;4996127;28;20300;-88
2023/02/26 07:11:25;;;;;;;14.20;10.77;;;-1.40;82.00;;;;;;4995899;28;20202;-88
2023/02/26 07:13:50;;;;;;;14.60;10.63;;;-1.40;82.20;;;;;;4996131;28;20175;-88
2023/02/26 07:16:16;;;;;;;12.03;10.73;;;-1.40;82.10;;;;;;4995932;28;20214;-88
2023/02/26 07:18:42;;;;;;;16.70;10.47;;;-1.40;82.30;;;;;;4994783;28;20214;-88
2023/02/26 07:21:07;;;;;;;10.80;10.00;;;-1.40;82.30;;;;;;4994559;28;20209;-88
2023/02/26 07:23:33;;;;;;;10.67;9.87;;;-1.40;82.40;;;;;;4995816;28;20183;-88
2023/02/26 07:25:58;;;;;;;11.10;10.00;;;-1.40;82.60;;;;;;4994335;28;20209;-88
2023/02/26 07:28:24;;;;;;;13.97;10.13;;;-1.40;82.70;;;;;;4995637;28;20262;-88
2023/02/26 07:30:49;;;;;;;11.10;9.73;;;-1.40;82.80;;;;;;4996275;28;20211;-89
2023/02/26 07:33:15;;;;;;;10.50;9.70;;;-1.30;82.90;;;;;;4994623;28;20273;-88
2023/02/26 07:35:41;;;;;;;11.30;10.23;;;-1.30;83.00;;;;;;4994420;28;20207;-88
2023/02/26 07:38:06;;;;;;;10.47;9.53;;;-1.30;83.00;;;;;;4995561;28;20182;-88
2023/02/26 07:40:32;;;;;;;11.97;10.30;;;-1.30;83.10;;;;;;4994501;28;20182;-89
2023/02/26 07:42:58;;;;;;;11.73;10.83;;;-1.20;83.30;;;;;;4994947;28;20186;-89
2023/02/26 07:45:29;;;;;;;12.03;11.00;;;-1.10;83.50;;;;;;4995519;28;20212;-91
2023/02/26 07:48:04;;;;;;;11.20;10.20;;;-1.00;83.60;;;;;;4997748;28;20202;-91
2023/02/26 07:50:30;;;;;;;10.63;9.67;;;-1.00;83.60;;;;;;5000046;28;20192;-90
2023/02/26 07:52:56;;;;;;;10.83;10.03;;;-0.90;83.60;;;;;;5001196;28;20245;-92
2023/02/26 07:55:21;;;;;;;11.30;10.13;;;-0.90;83.70;;;;;;5003719;28;20239;-90
2023/02/26 07:57:47;;;;;;;11.80;10.43;;;-0.70;83.40;;;;;;5001899;28;20661;-91
2023/02/26 08:00:14;;;;;;;10.60;9.80;;;-0.70;83.30;;;;;;4995628;28;20198;-90
2023/02/26 08:02:40;;;;;;;12.23;11.00;;;-0.70;83.30;;;;;;4995486;28;20179;-90
2023/02/26 08:05:06;;;;;;;10.57;9.87;;;-0.60;83.50;;;;;;4995229;28;20218;-90
2023/02/26 08:07:32;;;;;;;13.93;10.47;;;-0.60;83.20;;;;;;4994776;28;20572;-90
2023/02/26 08:09:57;;;;;;;11.07;9.40;;;-0.60;83.10;;;;;;4994885;28;20243;-91
2023/02/26 08:12:23;;;;;;;11.23;10.17;;;-0.60;83.20;;;;;;4997541;28;20184;-90
2023/02/26 08:14:52;;;;;;;11.23;10.27;;;-0.40;83.30;;;;;;4995435;28;20190;-91
2023/02/26 08:17:17;;;;;;;11.53;9.87;;;-0.40;83.20;;;;;;4993649;28;20681;-91
2023/02/26 08:19:43;;;;;;;10.93;9.43;;;-0.20;83.30;;;;;;4993697;28;20231;-92
2023/02/26 08:22:08;;;;;;;11.67;9.53;;;-0.30;83.00;;;;;;4993716;28;20185;-91
2023/02/26 08:24:34;;;;;;;14.73;9.60;;;-0.20;83.10;;;;;;4994423;28;20185;-91
2023/02/26 08:27:00;;;;;;;10.70;9.77;;;-0.20;83.00;;;;;;4994769;28;20220;-91
2023/02/26 08:29:26;;;;;;;12.87;11.83;;;-0.10;83.00;;;;;;4993811;28;20549;-92
2023/02/26 08:31:51;;;;;;;17.20;15.90;;;0.00;83.00;;;;;;4993699;28;20181;-91
2023/02/26 08:34:18;;;;;;;17.43;15.97;;;0.00;82.70;;;;;;4993719;28;20654;-92
2023/02/26 08:36:43;;;;;;;17.50;16.00;;;0.00;82.30;;;;;;4994533;28;20216;-91
2023/02/26 08:39:09;;;;;;;16.60;15.37;;;0.10;82.70;;;;;;4993447;28;20267;-90
2023/02/26 08:41:35;;;;;;;18.60;16.87;;;0.30;82.70;;;;;;4993274;28;20188;-91
2023/02/26 08:44:36;;;;;;;19.23;17.20;;;0.40;82.60;;;;;;4993499;28;20188;-91
2023/02/26 08:47:12;;;;;;;18.10;16.50;;;0.50;82.50;;;;;;4943509;28;20677;-90
2023/02/26 08:49:49;;;;;;;17.73;16.17;;;0.70;82.30;;;;;;4993821;28;20173;-90
2023/02/26 08:52:38;;;;;;;18.10;16.73;;;0.70;81.70;;;;;;4993937;28;20248;-90
2023/02/26 08:55:07;;;;;;;19.07;14.40;;;0.90;81.50;;;;;;4991044;28;20186;-90
2023/02/26 08:58:00;;;;;;;14.93;13.53;;;0.90;81.30;;;;;;4992997;28;20204;-90
2023/02/26 09:00:25;;;;;;;14.93;13.67;;;1.10;81.10;;;;;;4993242;28;20194;-90
2023/02/26 09:02:51;;;;;;;15.63;14.00;;;1.20;80.60;;;;;;4993300;28;20251;-89
2023/02/26 09:05:17;;;;;;;14.13;13.07;;;1.10;80.60;;;;;;4993320;28;20215;-91
2023/02/26 09:08:01;;;;;;;15.73;14.37;;;1.10;80.70;;;;;;4992602;28;20182;-90
2023/02/26 09:10:30;;;;;;;15.40;13.63;;;1.10;80.40;;;;;;4993463;28;20235;-90
2023/02/26 09:13:10;;;;;;;15.67;14.33;;;1.10;80.30;;;;;;4993407;28;20188;-90
2023/02/26 09:15:37;;;;;;;15.73;14.47;;;1.10;80.40;;;;;;4993100;28;20205;-90
2023/02/26 09:18:10;;;;;;;16.10;14.80;;;1.20;80.50;;;;;;4992662;28;20201;-90
2023/02/26 09:20:36;;;;;;;16.60;15.00;;;1.20;80.90;;;;;;4994226;28;20173;-90
2023/02/26 09:23:02;;;;;;;15.83;14.53;;;1.30;81.20;;;;;;4997603;28;20182;-89
2023/02/26 09:25:28;;;;;;;15.37;14.17;;;1.60;81.00;;;;;;4996440;28;20632;-90
2023/02/26 09:28:03;;;;;;;15.70;14.40;;;1.70;80.90;;;;;;4996883;28;20718;-89
2023/02/26 09:30:29;;;;;;;15.27;14.07;;;1.70;80.40;;;;;;4996790;28;20193;-89
2023/02/26 09:32:56;;;;;;;17.70;15.97;;;1.90;79.70;;;;;;4996608;28;20181;-90
2023/02/26 09:35:25;;;;;;;16.80;15.47;;;2.00;79.30;;;;;;4996532;28;20185;-90
2023/02/26 09:37:51;;;;;;;17.77;16.13;;;2.10;79.10;;;;;;4996731;28;20207;-89
2023/02/26 09:41:02;;;;;;;20.03;16.80;;;2.20;79.20;;;;;;4996765;28;20647;-90
2023/02/26 09:43:56;;;;;;;18.70;17.10;;;2.30;79.20;;;;;;4997868;28;20182;-90
2023/02/26 09:46:42;;;;;;;18.03;16.30;;;2.50;79.10;;;;;;4996451;28;20225;-89
2023/02/26 09:49:20;;;;;;;17.90;16.43;;;2.70;78.40;;;;;;4997066;28;20181;-89
2023/02/26 09:51:51;;;;;;;18.43;17.07;;;2.80;77.30;;;;;;4996714;28;20184;-89
2023/02/26 09:54:24;;;;;;;16.13;14.43;;;2.90;77.10;;;;;;4997150;28;20167;-89
2023/02/26 09:56:51;;;;;;;25.30;15.73;;;2.90;76.50;;;;;;4996700;28;20195;-89
2023/02/26 09:59:17;;;;;;;16.67;15.07;;;2.90;75.70;;;;;;4997007;28;20191;-89
2023/02/26 10:02:02;;;;;;;15.53;14.30;;;2.90;75.60;;;;;;4996977;28;20236;-88
2023/02/26 10:04:56;;;;;;;17.97;16.67;;;3.00;75.90;;;;;;4999578;28;20649;-90
2023/02/26 10:07:31;;;;;;;18.50;17.10;;;3.10;76.10;;;;;;4995939;28;20190;-89
2023/02/26 10:10:18;;;;;;;17.07;15.70;;;3.20;76.10;;;;;;4996503;28;20166;-89
2023/02/26 10:12:45;;;;;;;18.87;17.17;;;3.30;75.90;;;;;;4995687;28;20262;-89
2023/02/26 10:15:31;;;;;;;17.30;15.97;;;3.60;76.10;;;;;;4997139;28;20270;-89
2023/02/26 10:18:18;;;;;;;17.43;16.30;;;3.70;75.40;;;;;;4997146;28;20649;-89
2023/02/26 10:20:58;;;;;;;18.20;16.90;;;3.60;75.40;;;;;;4997465;28;20171;-89
2023/02/26 10:23:27;;;;;;;18.80;17.17;;;3.70;75.90;;;;;;4997082;28;20174;-88
2023/02/26 10:26:14;;;;;;;20.83;17.67;;;3.60;75.20;;;;;;4996135;28;20219;-89
2023/02/26 10:28:47;;;;;;;20.00;18.27;;;3.50;75.10;;;;;;4996192;28;20171;-89
2023/02/26 10:31:17;;;;;;;18.87;17.20;;;3.50;73.80;;;;;;4996319;28;20214;-89
2023/02/26 10:33:50;;;;;;;16.53;15.07;;;3.50;73.60;;;;;;4996240;28;20163;-89
2023/02/26 10:36:24;;;;;;;20.20;15.97;;;3.50;73.20;;;;;;4995988;28;20293;-89
2023/02/26 10:38:57;;;;;;;16.70;15.30;;;3.50;73.60;;;;;;4996693;28;20166;-89
2023/02/26 10:41:27;;;;;;;16.90;15.60;;;3.60;73.40;;;;;;4997326;28;20180;-89
2023/02/26 10:44:15;;;;;;;16.70;15.33;;;3.60;72.90;;;;;;4995845;28;20179;-89
2023/02/26 10:47:00;;;;;;;18.90;17.50;;;3.70;73.90;;;;;;4996064;28;20310;-90
2023/02/26 10:49:41;;;;;;;18.50;17.07;;;3.70;73.10;;;;;;4995694;28;20165;-89
2023/02/26 10:52:15;;;;;;;17.27;15.90;;;3.70;72.90;;;;;;4996850;28;20175;-89
2023/02/26 10:55:00;;;;;;;17.73;16.20;;;3.70;73.30;;;;;;4996473;28;20175;-88
2023/02/26 10:57:32;;;;;;;18.93;16.93;;;3.70;73.80;;;;;;4995668;28;20211;-89
2023/02/26 10:59:59;;;;;;;18.13;16.80;;;3.70;73.60;;;;;;4995580;28;20169;-89
2023/02/26 11:02:35;;;;;;;18.63;16.93;;;3.70;73.50;;;;;;4996046;28;20177;-89
2023/02/26 11:05:04;;;;;;;18.10;16.77;;;3.80;73.00;;;;;;4995554;28;20193;-89
2023/02/26 11:07:30;;;;;;;19.57;17.57;;;3.90;72.80;;;;;;4995613;28;20197;-89
2023/02/26 11:09:57;;;;;;;19.70;17.67;;;3.80;72.40;;;;;;4996359;28;20177;-89
2023/02/26 11:12:24;;;;;;;18.43;16.10;;;3.90;72.40;;;;;;4995482;28;20640;-89
2023/02/26 11:14:51;;;;;;;17.73;16.47;;;3.90;73.00;;;;;;4995128;28;20186;-89
2023/02/26 11:17:26;;;;;;;17.70;16.30;;;4.00;72.50;;;;;;4995066;28;20241;-89
2023/02/26 11:20:00;;;;;;;18.20;16.43;;;4.00;72.00;;;;;;4995202;28;20233;-89
2023/02/26 11:22:36;;;;;;;17.97;16.57;;;4.00;71.50;;;;;;4995444;28;20196;-89
2023/02/26 11:25:03;;;;;;;18.63;16.87;;;4.00;71.50;;;;;;4995474;28;20209;-89
2023/02/26 11:27:36;;;;;;;18.03;16.53;;;4.00;71.30;;;;;;4995382;28;20299;-89
2023/02/26 11:30:24;;;;;;;18.87;17.43;;;4.10;71.20;;;;;;4995428;28;20217;-89
2023/02/26 11:32:51;;;;;;;18.27;16.87;;;4.30;72.00;;;;;;4995559;28;20169;-89
2023/02/26 11:35:22;;;;;;;17.73;16.10;;;4.50;71.70;;;;;;4994825;28;20279;-90
2023/02/26 11:38:01;;;;;;;18.67;16.50;;;4.50;71.00;;;;;;4995574;28;20239;-89
2023/02/26 11:40:38;;;;;;;18.07;16.77;;;4.40;69.60;;;;;;4995303;28;20193;-89
2023/02/26 11:43:10;;;;;;;19.50;17.97;;;4.40;68.70;;;;;;4994403;28;20187;-88
2023/02/26 11:45:40;;;;;;;20.07;18.30;;;4.30;69.10;;;;;;4995550;28;20710;-89
2023/02/26 11:48:12;;;;;;;19.70;18.10;;;4.30;70.00;;;;;;4994788;28;20166;-88
2023/02/26 11:50:43;;;;;;;18.00;16.53;;;4.30;69.10;;;;;;4994828;28;20165;-88
2023/02/26 11:53:30;;;;;;;17.33;16.03;;;4.30;69.10;;;;;;4993830;28;20263;-88
2023/02/26 11:56:09;;;;;;;18.97;17.27;;;4.20;70.60;;;;;;5004576;23;20233;-89
2023/02/26 11:58:37;;;;;;;19.83;17.77;;;4.20;70.10;;;;;;4997096;28;20199;-89
2023/02/26 12:01:05;;;;;;;18.70;17.50;;;4.30;70.80;;;;;;4997251;28;20187;-88
2023/02/26 12:03:41;;;;;;;19.23;17.77;;;4.30;70.80;;;;;;4997564;28;20179;-89
2023/02/26 12:06:16;;;;;;;18.90;17.70;;;4.20;70.30;;;;;;4998121;28;20215;-90
2023/02/26 12:08:42;;;;;;;19.73;17.93;;;4.20;70.20;;;;;;4997301;28;20671;-89
2023/02/26 12:11:29;;;;;;;19.97;18.23;;;4.20;70.00;;;;;;4997609;28;20259;-89
2023/02/26 12:14:33;;;;;;;20.27;17.53;;;4.20;70.00;;;;;;4997284;28;20239;-90
2023/02/26 12:17:23;;;;;;;17.43;15.70;;;4.30;70.70;;;;;;4998123;28;20235;-90
2023/02/26 12:20:14;;;;;;;17.53;16.30;;;4.30;70.10;;;;;;4998012;28;20180;-90
2023/02/26 12:22:54;;;;;;;18.50;16.73;;;4.30;70.10;;;;;;4997389;28;20267;-89
2023/02/26 12:25:38;;;;;;;17.63;16.10;;;4.30;70.90;;;;;;4996730;28;20203;-90
2023/02/26 12:28:13;;;;;;;18.10;16.80;;;4.30;70.70;;;;;;4997080;28;20199;-89
2023/02/26 12:30:57;;;;;;;17.73;16.13;;;4.30;70.40;;;;;;4997037;28;20171;-90
2023/02/26 12:33:29;;;;;;;18.97;17.37;;;4.60;71.30;;;;;;4996754;28;20178;-90
2023/02/26 12:36:20;;;;;;;17.77;16.47;;;5.00;70.50;;;;;;4996698;28;20208;-89
2023/02/26 12:39:04;;;;;;;19.13;17.77;;;5.10;68.80;;;;;;4997261;28;20181;-90
2023/02/26 12:41:41;;;;;;;19.67;17.80;;;5.00;68.50;;;;;;4996208;28;20188;-90
2023/02/26 12:44:43;;;;;;;19.87;18.23;;;4.80;67.80;;;;;;4997025;28;20271;-89
2023/02/26 12:47:24;;;;;;;17.90;16.70;;;4.60;68.10;;;;;;4996417;28;20575;-90
2023/02/26 12:50:05;;;;;;;18.83;17.37;;;4.60;69.70;;;;;;4996125;28;20185;-89
2023/02/26 12:53:10;;;;;;;17.40;15.23;;;5.10;69.70;;;;;;4997419;28;20339;-89
2023/02/26 12:55:52;;;;;;;17.20;15.93;;;5.50;67.90;;;;;;4995861;28;20589;-89
2023/02/26 12:58:41;;;;;;;18.13;16.77;;;5.40;66.10;;;;;;4996828;28;20256;-90
2023/02/26 13:01:22;;;;;;;18.73;17.10;;;5.20;65.20;;;;;;4996339;28;20251;-90
2023/02/26 13:04:12;;;;;;;17.40;16.30;;;5.00;65.40;;;;;;4996211;28;20207;-89